createdAt,value
2022-07-25T00:02:03.061Z,45.34
2022-07-25T00:04:31.263Z,45.56
2022-07-25T00:06:59.574Z,45.56
2022-07-25T00:09:28.660Z,45.38
2022-07-25T00:11:56.478Z,45.33
2022-07-25T00:14:24.245Z,45.44
2022-07-25T00:16:52.221Z,45.72
2022-07-25T00:19:20.105Z,45.94
2022-07-25T00:21:47.859Z,46.08
2022-07-25T00:24:15.628Z,46.21
2022-07-25T00:26:44.807Z,46.10
2022-07-25T00:29:12.593Z,46.01
2022-07-25T00:31:40.367Z,45.97
2022-07-25T00:34:08.696Z,46.13
2022-07-25T00:36:36.749Z,46.16
2022-07-25T00:39:04.949Z,46.25
2022-07-25T00:41:32.804Z,46.73
2022-07-25T00:44:01.942Z,46.67
2022-07-25T00:46:29.846Z,46.96
2022-07-25T00:48:59.157Z,46.81
2022-07-25T00:51:27.177Z,46.71
2022-07-25T00:53:55.639Z,46.76
2022-07-25T00:56:23.734Z,46.85
2022-07-25T00:58:51.918Z,46.97
2022-07-25T01:01:21.041Z,47.20
2022-07-25T01:03:48.902Z,47.36
2022-07-25T01:06:16.717Z,47.61
2022-07-25T01:08:44.520Z,47.85
2022-07-25T01:11:12.818Z,47.92
2022-07-25T01:13:40.761Z,47.98
2022-07-25T01:16:08.971Z,47.76
2022-07-25T01:18:38.405Z,47.86
2022-07-25T01:21:08.234Z,47.44
2022-07-25T01:23:35.974Z,47.42
2022-07-25T01:26:03.946Z,47.12
2022-07-25T01:28:31.707Z,46.92
2022-07-25T01:30:59.476Z,47.09
2022-07-25T01:33:27.235Z,47.21
2022-07-25T01:35:55.000Z,46.88
2022-07-25T01:38:24.057Z,46.90
2022-07-25T01:40:51.926Z,46.84
2022-07-25T01:43:19.725Z,46.57
2022-07-25T01:45:47.592Z,46.93
2022-07-25T01:48:15.363Z,47.06
2022-07-25T01:50:44.624Z,46.92
2022-07-25T01:53:12.599Z,47.12
2022-07-25T01:55:41.628Z,47.41
2022-07-25T01:58:10.642Z,47.55
2022-07-25T02:00:38.721Z,47.73
2022-07-25T02:03:23.970Z,47.97
2022-07-25T02:05:51.779Z,48.18
2022-07-25T02:08:19.451Z,47.97
2022-07-25T02:10:48.754Z,48.18
2022-07-25T02:13:16.876Z,48.15
2022-07-25T02:15:44.623Z,48.51
2022-07-25T02:18:12.562Z,48.71
2022-07-25T02:20:40.293Z,48.38
2022-07-25T02:23:08.142Z,48.38
2022-07-25T02:25:37.636Z,47.99
2022-07-25T02:28:07.042Z,48.12
2022-07-25T02:30:36.509Z,48.20
2022-07-25T02:33:04.314Z,48.39
2022-07-25T02:35:32.018Z,48.55
2022-07-25T02:37:59.785Z,48.36
2022-07-25T02:40:27.894Z,48.90
2022-07-25T02:42:55.708Z,49.12
2022-07-25T02:45:26.796Z,49.55
2022-07-25T02:47:57.381Z,49.74
2022-07-25T02:50:25.061Z,50.05
2022-07-25T02:52:52.783Z,50.04
2022-07-25T02:55:20.595Z,49.50
2022-07-25T02:57:48.287Z,49.72
2022-07-25T03:00:17.485Z,49.80
2022-07-25T03:02:46.894Z,50.41
2022-07-25T03:05:16.430Z,50.27
2022-07-25T03:07:45.030Z,50.80
2022-07-25T03:10:22.284Z,50.68
2022-07-25T03:12:49.973Z,51.29
2022-07-25T03:18:00.697Z,51.84
2022-07-25T03:20:28.462Z,52.29
2022-07-25T03:22:56.222Z,52.01
2022-07-25T03:25:23.971Z,51.66
2022-07-25T03:27:51.970Z,51.80
2022-07-25T03:30:19.663Z,51.45
2022-07-25T03:32:47.747Z,51.17
2022-07-25T03:35:26.452Z,51.34
2022-07-25T03:37:54.442Z,51.00
2022-07-25T03:40:31.852Z,50.82
2022-07-25T03:42:59.659Z,50.76
2022-07-25T03:45:27.495Z,50.76
2022-07-25T03:47:55.291Z,50.83
2022-07-25T03:50:27.204Z,50.96
2022-07-25T03:52:57.962Z,51.44
2022-07-25T03:55:25.718Z,51.42
2022-07-25T03:57:53.465Z,51.56
2022-07-25T04:00:21.442Z,51.76
2022-07-25T04:02:49.301Z,51.83
2022-07-25T04:05:17.107Z,51.68
2022-07-25T04:07:46.217Z,51.94
2022-07-25T04:10:23.195Z,52.05
2022-07-25T04:12:50.978Z,52.52
2022-07-25T04:15:18.758Z,52.19
2022-07-25T04:17:46.529Z,52.49
2022-07-25T04:20:14.366Z,52.55
2022-07-25T04:22:46.298Z,53.19
2022-07-25T04:25:15.976Z,53.23
2022-07-25T04:27:44.360Z,53.47
2022-07-25T04:30:13.228Z,53.41
2022-07-25T04:32:52.114Z,53.08
2022-07-25T04:35:19.783Z,53.50
2022-07-25T04:37:47.479Z,53.40
2022-07-25T04:40:16.606Z,53.29
2022-07-25T04:42:44.419Z,53.12
2022-07-25T04:45:12.756Z,53.20
2022-07-25T04:47:40.628Z,53.41
2022-07-25T04:50:21.774Z,53.65
2022-07-25T04:52:52.454Z,53.58
2022-07-25T04:55:21.710Z,53.77
2022-07-25T04:57:49.566Z,53.66
2022-07-25T05:00:17.885Z,53.63
2022-07-25T05:02:45.691Z,53.72
2022-07-25T05:11:50.492Z,53.75
2022-07-25T05:14:22.232Z,53.53
2022-07-25T05:16:50.309Z,53.41
2022-07-25T05:19:24.164Z,53.12
2022-07-25T05:21:51.872Z,52.98
2022-07-25T05:24:19.754Z,52.86
2022-07-25T05:26:48.802Z,52.71
2022-07-25T05:29:16.835Z,52.67
2022-07-25T05:31:44.575Z,52.49
2022-07-25T05:34:12.574Z,52.50
2022-07-25T05:36:43.042Z,52.24
2022-07-25T05:39:14.941Z,52.44
2022-07-25T05:41:42.879Z,52.44
2022-07-25T05:44:12.001Z,52.74
2022-07-25T05:46:39.773Z,53.02
2022-07-25T05:49:07.643Z,53.31
2022-07-25T05:51:35.427Z,53.70
2022-07-25T05:54:03.378Z,53.66
2022-07-25T05:56:31.408Z,53.68
2022-07-25T05:58:59.260Z,53.52
2022-07-25T06:01:28.302Z,53.48
2022-07-25T06:03:57.474Z,53.47
2022-07-25T06:06:25.452Z,53.26
2022-07-25T06:08:53.142Z,53.21
2022-07-25T06:11:22.429Z,53.26
2022-07-25T06:13:50.915Z,53.47
2022-07-25T06:16:19.345Z,53.40
2022-07-25T06:18:48.559Z,53.76
2022-07-25T06:21:16.322Z,53.97
2022-07-25T06:23:44.100Z,54.13
2022-07-25T06:26:12.312Z,54.04
2022-07-25T06:28:40.118Z,53.64
2022-07-25T06:31:07.863Z,53.75
2022-07-25T06:33:35.700Z,53.21
2022-07-25T06:36:05.716Z,53.33
2022-07-25T06:38:33.743Z,53.26
2022-07-25T06:41:01.476Z,53.48
2022-07-25T06:43:29.236Z,53.66
2022-07-25T06:45:57.010Z,53.39
2022-07-25T06:48:25.243Z,53.34
2022-07-25T06:50:52.984Z,53.31
2022-07-25T06:53:22.063Z,53.15
2022-07-25T06:55:50.163Z,53.41
2022-07-25T06:58:17.850Z,53.44
2022-07-25T07:00:51.221Z,53.28
2022-07-25T07:03:19.115Z,53.34
2022-07-25T07:05:46.848Z,53.45
2022-07-25T07:08:14.644Z,53.12
2022-07-25T07:10:43.733Z,52.47
2022-07-25T07:13:12.909Z,52.32
2022-07-25T07:15:45.843Z,52.30
2022-07-25T07:18:13.869Z,52.06
2022-07-25T07:20:41.554Z,51.41
2022-07-25T07:23:09.554Z,51.71
2022-07-25T07:25:37.940Z,51.11
2022-07-25T07:28:07.523Z,50.27
2022-07-25T07:31:05.647Z,50.52
2022-07-25T07:33:23.026Z,50.61
2022-07-25T07:35:50.778Z,50.75
2022-07-25T07:38:18.973Z,50.21
2022-07-25T07:40:46.627Z,50.57
2022-07-25T07:43:15.753Z,50.62
2022-07-25T07:45:44.030Z,50.46
2022-07-25T07:48:11.818Z,50.10
2022-07-25T07:50:40.184Z,50.18
2022-07-25T07:53:08.035Z,49.59
2022-07-25T07:55:48.868Z,49.96
2022-07-25T07:58:19.534Z,50.23
2022-07-25T08:00:49.045Z,49.83
2022-07-25T08:03:19.423Z,48.71
2022-07-25T08:05:51.606Z,49.00
2022-07-25T08:08:19.707Z,48.84
2022-07-25T08:10:49.224Z,48.20
2022-07-25T08:13:19.946Z,48.28
2022-07-25T08:15:49.381Z,47.48
2022-07-25T08:18:18.289Z,46.75
2022-07-25T08:20:46.383Z,46.28
2022-07-25T08:23:14.673Z,45.45
2022-07-25T08:25:43.155Z,45.58
2022-07-25T08:28:11.323Z,45.27
2022-07-25T08:30:42.118Z,45.28
2022-07-25T08:33:13.551Z,45.35
2022-07-25T08:35:42.090Z,45.16
2022-07-25T08:38:11.527Z,45.55
2022-07-25T08:40:39.612Z,44.79
2022-07-25T08:43:07.432Z,44.82
2022-07-25T08:45:35.193Z,44.84
2022-07-25T08:48:04.738Z,44.75
2022-07-25T08:50:32.422Z,44.94
2022-07-25T08:53:30.423Z,44.55
2022-07-25T08:55:50.209Z,44.68
2022-07-25T08:58:19.271Z,44.88
2022-07-25T09:00:47.184Z,44.13
2022-07-25T09:03:16.534Z,44.82
2022-07-25T09:05:46.087Z,44.65
2022-07-25T09:08:16.383Z,44.34
2022-07-25T09:10:48.001Z,43.82
2022-07-25T09:13:16.624Z,44.15
2022-07-25T09:15:47.316Z,43.99
2022-07-25T09:18:17.864Z,43.84
2022-07-25T09:20:47.978Z,43.00
2022-07-25T09:23:28.389Z,43.49
2022-07-25T09:26:03.388Z,43.79
2022-07-25T09:28:31.278Z,43.56
2022-07-25T09:31:00.619Z,44.27
2022-07-25T09:33:30.742Z,43.87
2022-07-25T09:35:59.008Z,42.82
2022-07-25T09:38:26.929Z,42.41
2022-07-25T09:40:57.102Z,41.48
2022-07-25T09:43:25.183Z,41.19
2022-07-25T09:45:53.914Z,39.63
2022-07-25T09:48:21.904Z,39.88
2022-07-25T09:50:51.884Z,39.83
2022-07-25T09:53:21.226Z,40.11
2022-07-25T09:55:49.009Z,39.56
2022-07-25T09:58:17.159Z,39.37
2022-07-25T10:00:46.181Z,39.20
2022-07-25T10:03:19.948Z,39.07
2022-07-25T10:06:03.501Z,39.13
2022-07-25T10:08:37.735Z,38.56
2022-07-25T10:11:06.742Z,38.49
2022-07-25T10:13:38.292Z,38.10
2022-07-25T10:16:16.385Z,36.72
2022-07-25T10:18:50.582Z,37.58
2022-07-25T10:21:26.922Z,37.70
2022-07-25T10:24:00.798Z,37.20
2022-07-25T10:26:28.902Z,37.77
2022-07-25T10:28:57.333Z,37.08
2022-07-25T10:31:27.870Z,37.45
2022-07-25T10:33:57.971Z,36.72
2022-07-25T10:36:30.201Z,36.03
2022-07-25T10:39:01.699Z,35.14
2022-07-25T10:41:30.118Z,35.58
2022-07-25T10:44:01.887Z,35.92
2022-07-25T10:46:30.946Z,35.70
2022-07-25T10:49:01.050Z,35.79
2022-07-25T10:51:32.682Z,36.12
2022-07-25T10:54:00.653Z,35.72
2022-07-25T10:56:30.024Z,35.08
2022-07-25T10:58:59.844Z,34.48
2022-07-25T11:01:30.062Z,35.16
2022-07-25T11:04:00.624Z,35.15
2022-07-25T11:06:35.199Z,34.85
2022-07-25T11:09:04.105Z,35.27
2022-07-25T11:11:40.451Z,35.47
2022-07-25T11:14:16.587Z,35.12
2022-07-25T11:16:45.077Z,34.70
2022-07-25T11:19:20.573Z,34.87
2022-07-25T11:21:52.116Z,34.84
2022-07-25T11:24:20.101Z,34.01
2022-07-25T11:26:49.951Z,34.33
2022-07-25T11:29:23.816Z,34.36
2022-07-25T11:31:56.584Z,33.31
2022-07-25T11:34:26.357Z,33.22
2022-07-25T11:36:57.367Z,33.82
2022-07-25T11:39:27.145Z,33.14
2022-07-25T11:42:03.204Z,31.60
2022-07-25T11:44:32.812Z,31.52
2022-07-25T11:47:00.737Z,31.76
2022-07-25T11:49:28.433Z,32.21
2022-07-25T11:51:57.565Z,33.60
2022-07-25T11:54:25.269Z,35.86
2022-07-25T11:56:53.103Z,36.33
2022-07-25T11:59:20.870Z,36.16
2022-07-25T12:01:48.822Z,34.75
2022-07-25T12:04:18.801Z,33.80
2022-07-25T12:06:50.270Z,34.01
2022-07-25T12:09:20.443Z,34.15
2022-07-25T12:11:49.323Z,33.79
2022-07-25T12:14:17.880Z,33.48
2022-07-25T12:16:45.752Z,33.46
2022-07-25T12:19:21.070Z,33.77
2022-07-25T12:21:49.145Z,32.95
2022-07-25T12:24:17.037Z,33.53
2022-07-25T12:26:46.144Z,33.14
2022-07-25T12:29:13.846Z,33.16
2022-07-25T12:31:41.645Z,33.12
2022-07-25T12:34:09.343Z,33.69
2022-07-25T12:36:43.709Z,33.73
2022-07-25T12:39:11.946Z,33.88
2022-07-25T12:41:40.041Z,34.30
2022-07-25T12:44:09.146Z,33.79
2022-07-25T12:46:38.317Z,34.27
2022-07-25T12:49:06.345Z,34.43
2022-07-25T12:51:34.344Z,34.47
2022-07-25T12:54:02.151Z,34.64
2022-07-25T12:56:29.920Z,34.72
2022-07-25T12:58:57.667Z,34.83
2022-07-25T13:01:26.747Z,35.21
2022-07-25T13:03:54.455Z,35.19
2022-07-25T13:06:22.349Z,35.20
2022-07-25T13:08:50.141Z,35.60
2022-07-25T13:11:17.870Z,35.49
2022-07-25T13:13:45.594Z,35.14
2022-07-25T13:16:13.345Z,34.76
2022-07-25T13:18:44.291Z,35.25
2022-07-25T13:21:12.100Z,34.91
2022-07-25T13:23:40.320Z,35.13
2022-07-25T13:26:08.760Z,34.88
2022-07-25T13:28:36.527Z,35.06
2022-07-25T13:31:06.913Z,35.26
2022-07-25T13:33:34.663Z,34.86
2022-07-25T13:36:03.810Z,33.96
2022-07-25T13:38:31.539Z,33.50
2022-07-25T13:40:59.298Z,33.64
2022-07-25T13:43:27.108Z,34.01
2022-07-25T13:45:55.141Z,34.33
2022-07-25T13:48:31.521Z,34.71
2022-07-25T13:51:00.110Z,35.14
2022-07-25T13:53:30.468Z,35.14
2022-07-25T13:55:59.145Z,34.68
2022-07-25T13:58:27.100Z,34.46
2022-07-25T14:00:55.231Z,34.25
2022-07-25T14:03:23.087Z,34.20
2022-07-25T14:05:51.049Z,33.89
2022-07-25T14:08:18.916Z,34.01
2022-07-25T14:10:48.031Z,33.81
2022-07-25T14:13:16.026Z,33.83
2022-07-25T14:15:43.847Z,33.86
2022-07-25T14:18:11.768Z,33.65
2022-07-25T14:20:39.589Z,33.71
2022-07-25T14:23:07.318Z,34.08
2022-07-25T14:25:35.261Z,34.00
2022-07-25T14:28:04.582Z,34.29
2022-07-25T14:30:32.330Z,34.23
2022-07-25T14:33:00.032Z,34.45
2022-07-25T14:35:32.330Z,34.30
2022-07-25T14:38:00.665Z,34.52
2022-07-25T14:40:28.457Z,34.82
2022-07-25T14:42:56.210Z,34.51
2022-07-25T14:45:25.253Z,34.50
2022-07-25T14:47:53.950Z,34.60
2022-07-25T14:50:21.961Z,34.62
2022-07-25T14:52:49.709Z,34.98
2022-07-25T14:55:18.722Z,34.84
2022-07-25T14:57:46.440Z,35.17
2022-07-25T15:00:15.188Z,35.16
2022-07-25T15:02:44.431Z,35.42
2022-07-25T15:05:12.174Z,35.56
2022-07-25T15:07:40.067Z,35.30
2022-07-25T15:10:08.413Z,35.58
2022-07-25T15:12:36.206Z,35.96
2022-07-25T15:15:04.214Z,36.09
2022-07-25T15:17:32.264Z,36.51
2022-07-25T15:20:01.449Z,35.80
2022-07-25T15:22:29.385Z,36.14
2022-07-25T15:25:27.583Z,36.11
2022-07-25T15:27:45.326Z,36.47
2022-07-25T15:30:13.698Z,36.25
2022-07-25T15:32:41.617Z,36.16
2022-07-25T15:35:10.778Z,36.15
2022-07-25T15:37:38.517Z,36.19
2022-07-25T15:40:07.495Z,35.79
2022-07-25T15:42:35.201Z,35.55
2022-07-25T15:45:32.078Z,34.87
2022-07-25T15:47:51.338Z,35.10
2022-07-25T15:50:21.422Z,35.33
2022-07-25T15:52:49.559Z,35.40
2022-07-25T15:55:17.290Z,34.93
2022-07-25T15:57:45.087Z,34.76
2022-07-25T16:00:16.226Z,35.32
2022-07-25T16:02:44.951Z,35.38
2022-07-25T16:05:12.652Z,35.20
2022-07-25T16:07:42.098Z,35.32
2022-07-25T16:10:11.143Z,35.91
2022-07-25T16:12:39.328Z,35.80
2022-07-25T16:15:08.374Z,35.17
2022-07-25T16:17:37.826Z,35.52
2022-07-25T16:20:06.617Z,35.64
2022-07-25T16:22:34.497Z,35.15
2022-07-25T16:25:04.175Z,35.15
2022-07-25T16:27:32.324Z,35.03
2022-07-25T16:30:00.850Z,34.96
2022-07-25T16:32:28.662Z,35.26
2022-07-25T16:34:56.377Z,34.62
2022-07-25T16:37:24.153Z,34.43
2022-07-25T16:39:51.902Z,33.81
2022-07-25T16:42:20.977Z,33.69
2022-07-25T16:44:49.318Z,33.94
2022-07-25T16:47:17.043Z,34.03
2022-07-25T16:49:44.770Z,33.07
2022-07-25T16:52:12.545Z,32.36
2022-07-25T16:54:42.043Z,31.91
2022-07-25T16:57:09.893Z,32.56
2022-07-25T16:59:38.941Z,32.56
2022-07-25T17:02:06.755Z,32.40
2022-07-25T17:04:35.124Z,32.92
2022-07-25T17:07:02.923Z,33.13
2022-07-25T17:09:30.697Z,32.06
2022-07-25T17:11:58.455Z,31.62
2022-07-25T17:14:30.255Z,31.36
2022-07-25T17:16:59.797Z,31.81
2022-07-25T17:19:27.491Z,31.50
2022-07-25T17:21:55.226Z,31.79
2022-07-25T17:24:23.051Z,32.56
2022-07-25T17:26:50.790Z,32.91
2022-07-25T17:29:18.670Z,33.10
2022-07-25T17:31:46.438Z,32.90
2022-07-25T17:34:15.553Z,32.74
2022-07-25T17:36:43.505Z,33.07
2022-07-25T17:39:11.479Z,33.04
2022-07-25T17:41:39.189Z,33.65
2022-07-25T17:44:11.637Z,34.04
2022-07-25T17:46:39.864Z,33.78
2022-07-25T17:49:07.627Z,34.33
2022-07-25T17:51:36.755Z,34.04
2022-07-25T17:54:04.752Z,33.83
2022-07-25T17:56:33.431Z,33.85
2022-07-25T17:59:01.140Z,33.43
2022-07-25T18:01:29.120Z,33.66
2022-07-25T18:03:57.236Z,33.31
2022-07-25T18:06:29.584Z,33.34
2022-07-25T18:08:59.092Z,33.47
2022-07-25T18:11:27.693Z,33.71
2022-07-25T18:13:55.384Z,33.74
2022-07-25T18:16:23.814Z,33.90
2022-07-25T18:18:51.523Z,34.72
2022-07-25T18:21:19.189Z,35.03
2022-07-25T18:23:47.002Z,34.77
2022-07-25T18:26:16.032Z,35.27
2022-07-25T18:28:43.884Z,35.37
2022-07-25T18:31:11.852Z,35.17
2022-07-25T18:33:39.601Z,34.84
2022-07-25T18:36:08.062Z,35.46
2022-07-25T18:38:36.485Z,35.31
2022-07-25T18:41:28.198Z,35.48
2022-07-25T18:43:54.432Z,35.97
2022-07-25T18:46:22.387Z,35.75
2022-07-25T18:48:51.287Z,35.93
2022-07-25T18:51:19.400Z,35.63
2022-07-25T18:53:48.535Z,35.74
2022-07-25T18:56:17.047Z,35.93
2022-07-25T18:58:45.174Z,35.51
2022-07-25T19:01:14.300Z,35.45
2022-07-25T19:03:42.127Z,35.72
2022-07-25T19:06:10.946Z,35.45
2022-07-25T19:08:38.944Z,35.51
2022-07-25T19:11:08.445Z,35.72
2022-07-25T19:13:49.557Z,35.79
2022-07-25T19:16:20.533Z,36.13
2022-07-25T19:18:49.159Z,35.98
2022-07-25T19:21:16.864Z,36.31
2022-07-25T19:23:50.548Z,36.62
2022-07-25T19:26:19.424Z,36.71
2022-07-25T19:28:47.273Z,36.54
2022-07-25T19:31:15.285Z,36.82
2022-07-25T19:33:45.896Z,37.24
2022-07-25T19:36:13.951Z,37.56
2022-07-25T19:38:41.708Z,37.49
2022-07-25T19:41:09.692Z,37.66
2022-07-25T19:43:37.460Z,37.54
2022-07-25T19:46:05.281Z,37.50
2022-07-25T19:48:40.675Z,37.79
2022-07-25T19:51:09.814Z,37.71
2022-07-25T19:53:40.624Z,37.47
2022-07-25T19:56:09.243Z,37.47
2022-07-25T19:58:39.083Z,37.43
2022-07-25T20:01:11.398Z,37.62
2022-07-25T20:03:39.176Z,37.44
2022-07-25T20:06:08.431Z,37.68
2022-07-25T20:08:39.323Z,37.85
2022-07-25T20:11:07.477Z,37.43
2022-07-25T20:13:36.077Z,37.76
2022-07-25T20:16:04.641Z,37.86
2022-07-25T20:18:32.692Z,38.72
2022-07-25T20:21:00.648Z,40.57
2022-07-25T20:23:28.599Z,38.42
2022-07-25T20:25:58.072Z,39.11
2022-07-25T20:28:25.812Z,38.79
2022-07-25T20:30:54.054Z,38.81
2022-07-25T20:33:23.760Z,39.61
2022-07-25T20:36:09.764Z,38.52
2022-07-25T20:42:19.138Z,38.88
2022-07-25T20:44:47.272Z,38.76
2022-07-25T20:47:16.029Z,38.87
2022-07-25T20:49:44.236Z,38.76
2022-07-25T20:52:12.097Z,38.87
2022-07-25T20:54:42.101Z,39.50
2022-07-25T20:57:11.489Z,39.46
2022-07-25T20:59:40.837Z,39.60
2022-07-25T21:02:08.581Z,39.66
2022-07-25T21:04:36.367Z,40.08
2022-07-25T21:07:05.225Z,40.19
2022-07-25T21:09:33.171Z,40.46
2022-07-25T21:12:02.383Z,40.68
2022-07-25T21:14:30.076Z,40.57
2022-07-25T21:16:59.131Z,40.19
2022-07-25T21:19:26.842Z,40.78
2022-07-25T21:21:54.624Z,40.71
2022-07-25T21:24:22.321Z,40.72
2022-07-25T21:26:51.275Z,40.78
2022-07-25T21:29:19.260Z,40.80
2022-07-25T21:31:47.099Z,40.89
2022-07-25T21:34:16.357Z,40.76
2022-07-25T21:36:44.065Z,40.74
2022-07-25T21:39:11.821Z,41.07
2022-07-25T21:41:39.607Z,40.58
2022-07-25T21:44:07.310Z,40.93
2022-07-25T21:46:35.011Z,41.19
2022-07-25T21:49:22.940Z,41.34
2022-07-25T21:52:13.324Z,41.68
2022-07-25T21:54:42.075Z,41.64
2022-07-25T21:57:13.433Z,41.60
2022-07-25T21:59:42.082Z,41.45
2022-07-25T22:02:09.781Z,41.46
2022-07-25T22:04:37.583Z,41.54
2022-07-25T22:07:05.877Z,41.51
2022-07-25T22:09:34.912Z,41.60
2022-07-25T22:12:02.795Z,41.78
2022-07-25T22:14:30.607Z,41.54
2022-07-25T22:16:58.435Z,41.68
2022-07-25T22:19:26.392Z,41.61
2022-07-25T22:21:54.171Z,41.52
2022-07-25T22:24:21.955Z,41.60
2022-07-25T22:26:51.051Z,41.47
2022-07-25T22:29:18.783Z,41.70
2022-07-25T22:31:46.569Z,41.96
2022-07-25T22:34:14.312Z,41.92
2022-07-25T22:36:42.208Z,42.02
2022-07-25T22:39:10.911Z,41.61
2022-07-25T22:41:38.976Z,41.65
2022-07-25T22:44:08.441Z,41.51
2022-07-25T22:46:36.163Z,41.67
2022-07-25T22:49:04.153Z,41.47
2022-07-25T22:51:32.103Z,41.56
2022-07-25T22:54:00.078Z,41.49
2022-07-25T22:56:29.996Z,41.45
2022-07-25T22:58:58.203Z,41.43
2022-07-25T23:01:27.429Z,41.60
2022-07-25T23:03:55.224Z,41.49
2022-07-25T23:06:23.101Z,41.55
2022-07-25T23:08:51.504Z,41.51
2022-07-25T23:11:19.676Z,41.49
2022-07-25T23:13:47.369Z,41.37
2022-07-25T23:16:15.209Z,41.40
2022-07-25T23:18:44.276Z,41.62
2022-07-25T23:21:12.224Z,41.77
2022-07-25T23:23:39.884Z,41.81
2022-07-25T23:26:07.519Z,41.59
2022-07-25T23:28:35.270Z,41.83
2022-07-25T23:31:03.011Z,41.82
2022-07-25T23:33:30.881Z,41.80
2022-07-25T23:36:00.058Z,42.10
2022-07-25T23:38:29.411Z,42.17
2022-07-25T23:40:57.147Z,42.34
2022-07-25T23:43:37.526Z,42.25
2022-07-25T23:46:12.841Z,42.42
2022-07-25T23:48:41.194Z,42.53
2022-07-25T23:51:10.432Z,42.53
2022-07-25T23:53:38.376Z,42.75
2022-07-25T23:56:06.593Z,42.52
2022-07-25T23:58:34.356Z,42.70
